Flight Track Log - Related Links

Times and Time Zones

All times are in EDT time to prevent confusion due to time zone crossing. See the AMF702 flight status page for this flight to view local times or setup timezone preferences in your user account.

Time Position Orientation Groundspeed Altitude Reporting Facility
EDT Latitude Longitude Course Direction KTS MPH feet Rate Location/Type
Mon 09:19:46 PM 28.4167 -81.3333 145° Southeast 148 170 800  Level Orlando TRACON
Mon 09:21:58 PM 28.3333 -81.2667 120° Southeast 182 209 5,300 1,698 Climbing Orlando TRACON
Mon 09:22:00 PM 28.2840 -81.2762 120° Southeast  Level Estimated
Mon 09:24:04 PM 28.2833 -81.1500 116° Southeast 231 266 8,100  Level Orlando TRACON
Mon 09:25:10 PM 28.2333 -81.0833 130° Southeast 236 272 9,600 1,682 Climbing Orlando TRACON
Mon 09:26:16 PM 28.2000 -81.0167 120° Southeast 193 222 11,800 1,886 Climbing Orlando TRACON
Mon 09:27:30 PM 28.1769 -80.9714 120° Southeast 183 211 14,000 985 Climbing Miami Center
Mon 09:28:30 PM 28.1497 -80.9044 115° Southeast 205 236 14,000  Level Miami Center
Mon 09:29:30 PM 28.1247 -80.8331 112° Southeast 227 261 14,000  Level Miami Center
Mon 09:30:30 PM 28.1097 -80.7642 104° East 252 290 14,000  Level Miami Center
Mon 09:31:30 PM 28.1017 -80.6792 96° East 246 283 14,000  Level Miami Center
Mon 09:32:30 PM 28.0744 -80.6053 113° Southeast 246 283 14,000  Level Miami Center
Mon 09:33:30 PM 28.0322 -80.5381 125° Southeast 251 289 14,000  Level Miami Center
Mon 09:34:30 PM 27.9983 -80.4733 121° Southeast 261 300 14,000  Level Miami Center
Mon 09:35:30 PM 27.9542 -80.4086 128° Southeast 261 300 14,000  Level Miami Center
Mon 09:36:30 PM 27.9078 -80.3461 130° Southeast 266 306 14,000  Level Miami Center
Mon 09:37:30 PM 27.8569 -80.2789 131° Southeast 261 300 14,000  Level Miami Center
Mon 09:38:30 PM 27.8167 -80.2236 129° Southeast 256 295 14,000  Level Miami Center
Mon 09:39:30 PM 27.7700 -80.1658 132° Southeast 251 289 14,000  Level Miami Center
Mon 09:40:30 PM 27.7192 -80.0986 130° Southeast 251 289 14,000  Level Miami Center
Mon 09:41:30 PM 27.6747 -80.0364 129° Southeast 251 289 14,000  Level Miami Center
Mon 09:42:30 PM 27.6258 -79.9764 133° Southeast 258 297 14,000  Level Miami Center
Mon 09:43:30 PM 27.5639 -79.9514 160° South 252 290 14,000 -100 Level Miami Center
Mon 09:44:30 PM 27.4883 -79.9633 188° South 269 310 13,800 -400 Descending Miami Center
Mon 09:45:30 PM 27.3983 -79.9775 188° South 295 339 13,200 -500 Descending Miami Center
Mon 09:46:30 PM 27.3186 -79.9986 193° South 300 345 12,800 -500 Descending Miami Center
Mon 09:47:30 PM 27.2367 -80.0175 192° South 300 345 12,200 -600 Descending Miami Center
Mon 09:48:30 PM 27.1633 -80.0247 185° South 295 339 11,600 -650 Descending Miami Center
Mon 09:49:30 PM 27.0842 -80.0250 180° South 295 339 10,900 -800 Descending Miami Center
Mon 09:50:30 PM 27.0006 -80.0272 181° South 282 325 10,000 -900 Descending Miami Center
Mon 09:51:30 PM 26.9275 -80.0253 179° South 275 316 9,100 -900 Descending Miami Center
Mon 09:52:30 PM 26.8522 -80.0256 180° South 275 316 8,200 -621 Descending Miami Center
Mon 09:54:00 PM 26.7596 -80.0505 194° South  Level Estimated
Mon 09:54:53 PM 26.6731 -80.0114 194° South 255 293 7,000  Level Miami Center
Mon 09:56:24 PM 26.5711 -79.9925 171° South 244 281 7,000 45 Level Miami Center
Mon 09:57:07 PM 26.5233 -79.9797 167° South 244 281 7,100  Climbing Miami Center
Mon 09:58:20 PM 26.4419 -79.9706 174° South 251 289 7,000 -86 Descending Miami Center
Mon 09:59:27 PM 26.3686 -79.9825 188° South 254 292 6,900 -885 Descending Miami Center
Mon 10:00:22 PM 26.3256 -80.0486 234° Southwest 300 345 5,200 -1,309 Descending Miami Center
Mon 10:01:17 PM 26.2864 -80.1147 237° Southwest 281 323 4,500 -583 Descending Miami Center
Mon 10:02:05 PM 26.2558 -80.1672 237° Southwest 254 292 4,200 -248 Descending Miami Center
Mon 10:03:18 PM 26.2125 -80.2447 238° Southwest 239 275 4,000 -514 Descending Miami Center
Mon 10:04:25 PM 26.1731 -80.3175 239° Southwest 234 269 3,000 -466 Descending Miami Center
Mon 10:05:14 PM 26.1469 -80.3631 237° Southwest 227 261 3,100 -310 Climbing Miami Center
Mon 10:06:21 PM 26.0939 -80.4031 214° Southwest 213 245 2,400 -469 Descending Miami Center
Mon 10:07:22 PM 26.0353 -80.4039 181° South 205 236 2,100 -157 Descending Miami Center
Mon 10:08:16 PM 25.9878 -80.3839 159° South 196 226 2,100 -330 Level Miami Center
Mon 10:09:11 PM 25.9506 -80.3667 157° South 138 159 1,500 -554 Descending Miami Center
Mon 10:10:26 PM 25.9286 -80.3267 121° Southeast 120 138 900 -480 Descending Miami Center
Mon 10:12:00 PM 25.9074 -80.2782 141° Southeast  Level Estimated
Mon 10:19:00 PM 25.9074 -80.2782 326° Northwest  Level Estimated

Login

Don't have an account? Register now (free) for customized features, flight alerts, and more!